createdAt,value
2023-01-30T00:01:32.309Z,5.38
2023-01-30T00:04:01.191Z,5.48
2023-01-30T00:06:29.014Z,5.57
2023-01-30T00:08:56.842Z,5.69
2023-01-30T00:11:24.811Z,5.79
2023-01-30T00:13:52.754Z,5.88
2023-01-30T00:16:20.641Z,5.95
2023-01-30T00:18:48.704Z,6.01
2023-01-30T00:21:17.115Z,6.05
2023-01-30T00:23:45.560Z,6.09
2023-01-30T00:26:14.142Z,6.13
2023-01-30T00:28:43.348Z,6.17
2023-01-30T00:31:11.489Z,6.20
2023-01-30T00:33:39.655Z,6.23
2023-01-30T00:36:08.134Z,6.30
2023-01-30T00:38:36.411Z,6.39
2023-01-30T00:41:05.010Z,6.46
2023-01-30T00:43:51.310Z,6.53
2023-01-30T00:46:50.464Z,6.64
2023-01-30T00:49:19.071Z,6.72
2023-01-30T00:51:47.574Z,6.77
2023-01-30T00:54:15.525Z,6.83
2023-01-30T00:56:43.476Z,6.88
2023-01-30T00:59:11.388Z,6.92
2023-01-30T01:01:39.415Z,6.98
2023-01-30T01:04:08.958Z,7.02
2023-01-30T01:06:38.557Z,7.07
2023-01-30T01:09:07.697Z,7.12
2023-01-30T01:11:36.586Z,7.13
2023-01-30T01:14:06.445Z,7.14
2023-01-30T01:16:36.084Z,7.14
2023-01-30T01:19:04.481Z,7.16
2023-01-30T01:21:33.144Z,7.15
2023-01-30T01:24:01.200Z,7.15
2023-01-30T01:26:29.273Z,7.14
2023-01-30T01:28:59.006Z,7.12
2023-01-30T01:31:27.452Z,7.06
2023-01-30T01:33:57.677Z,6.99
2023-01-30T01:36:52.300Z,6.91
2023-01-30T01:39:14.837Z,6.85
2023-01-30T01:41:43.126Z,6.82
2023-01-30T01:44:14.321Z,6.82
2023-01-30T01:46:56.779Z,6.86
2023-01-30T01:49:42.817Z,6.90
2023-01-30T01:52:16.932Z,6.95
2023-01-30T01:54:59.649Z,6.97
2023-01-30T01:58:04.780Z,7.01
2023-01-30T02:00:33.213Z,7.05
2023-01-30T02:03:06.605Z,7.08
2023-01-30T02:05:42.226Z,7.12
2023-01-30T02:08:22.127Z,7.15
2023-01-30T02:11:10.045Z,7.18
2023-01-30T02:13:38.732Z,7.24
2023-01-30T02:16:09.530Z,7.28
2023-01-30T02:18:42.769Z,7.32
2023-01-30T02:21:19.508Z,7.38
2023-01-30T02:24:12.032Z,7.46
2023-01-30T02:27:02.803Z,7.60
2023-01-30T02:29:53.846Z,7.68
2023-01-30T02:32:45.397Z,7.72
2023-01-30T02:35:47.546Z,7.76
2023-01-30T02:38:32.904Z,7.79
2023-01-30T02:41:34.755Z,7.75
2023-01-30T02:44:27.013Z,7.74
2023-01-30T02:47:04.254Z,7.75
2023-01-30T02:49:40.956Z,7.77
2023-01-30T02:52:14.007Z,7.78
2023-01-30T02:54:41.868Z,7.78
2023-01-30T02:57:25.540Z,7.79
2023-01-30T03:00:01.882Z,7.79
2023-01-30T03:03:07.342Z,7.77
2023-01-30T03:06:01.997Z,7.76
2023-01-30T03:08:57.988Z,7.77
2023-01-30T03:11:57.193Z,7.76
2023-01-30T03:14:49.124Z,7.76
2023-01-30T03:17:23.158Z,7.76
2023-01-30T03:19:55.258Z,7.82
2023-01-30T03:22:23.320Z,7.85
2023-01-30T03:24:54.365Z,7.88
2023-01-30T03:27:23.073Z,7.92
2023-01-30T03:29:50.951Z,7.97
2023-01-30T03:32:18.778Z,8.05
2023-01-30T03:34:46.640Z,8.14
2023-01-30T03:37:14.518Z,8.21
2023-01-30T03:39:42.528Z,8.26
2023-01-30T03:42:11.350Z,8.30
2023-01-30T03:44:39.274Z,8.34
2023-01-30T03:47:08.554Z,8.37
2023-01-30T03:49:36.523Z,8.43
2023-01-30T03:52:04.592Z,8.47
2023-01-30T03:54:32.671Z,8.53
2023-01-30T03:57:00.546Z,8.57
2023-01-30T03:59:28.427Z,8.57
2023-01-30T04:02:02.774Z,8.57
2023-01-30T04:04:30.847Z,8.57
2023-01-30T04:06:59.071Z,8.56
2023-01-30T04:09:27.709Z,8.59
2023-01-30T04:11:55.845Z,8.61
2023-01-30T04:14:23.926Z,8.62
2023-01-30T04:17:14.897Z,8.64
2023-01-30T04:20:09.798Z,8.63
2023-01-30T04:22:38.177Z,8.60
2023-01-30T04:25:06.347Z,8.57
2023-01-30T04:27:34.217Z,8.57
2023-01-30T04:30:12.353Z,8.56
2023-01-30T04:32:40.426Z,8.55
2023-01-30T04:35:10.153Z,8.51
2023-01-30T04:37:38.179Z,8.52
2023-01-30T04:40:07.483Z,8.48
2023-01-30T04:42:35.680Z,8.44
2023-01-30T04:45:23.774Z,8.37
2023-01-30T04:47:51.880Z,8.31
2023-01-30T04:50:19.851Z,8.32
2023-01-30T04:52:47.957Z,8.31
2023-01-30T04:55:16.110Z,8.30
2023-01-30T04:57:44.209Z,8.28
2023-01-30T05:00:12.668Z,8.25
2023-01-30T05:02:44.115Z,8.21
2023-01-30T05:05:11.935Z,8.18
2023-01-30T05:07:39.833Z,8.19
2023-01-30T05:10:08.383Z,8.19
2023-01-30T05:12:36.268Z,8.18
2023-01-30T05:15:05.077Z,8.18
2023-01-30T05:17:34.270Z,8.14
2023-01-30T05:20:02.319Z,8.11
2023-01-30T05:22:30.119Z,8.08
2023-01-30T05:24:57.923Z,8.04
2023-01-30T05:27:25.850Z,8.04
2023-01-30T05:29:53.794Z,7.99
2023-01-30T05:32:21.638Z,7.94
2023-01-30T05:34:50.061Z,7.95
2023-01-30T05:37:18.029Z,7.95
2023-01-30T05:39:45.817Z,7.97
2023-01-30T05:42:15.412Z,7.97
2023-01-30T05:44:43.202Z,7.94
2023-01-30T05:47:10.919Z,7.92
2023-01-30T05:49:38.817Z,7.92
2023-01-30T05:52:06.695Z,7.91
2023-01-30T05:54:35.513Z,7.91
2023-01-30T05:57:04.025Z,7.92
2023-01-30T05:59:31.891Z,7.92
2023-01-30T06:01:59.764Z,7.93
2023-01-30T06:04:27.558Z,7.91
2023-01-30T06:06:55.333Z,7.86
2023-01-30T06:09:23.108Z,7.76
2023-01-30T06:11:52.507Z,7.68
2023-01-30T06:14:21.391Z,7.62
2023-01-30T06:16:49.406Z,7.53
2023-01-30T06:19:17.230Z,7.43
2023-01-30T06:21:45.233Z,7.35
2023-01-30T06:24:13.225Z,7.25
2023-01-30T06:26:41.070Z,7.14
2023-01-30T06:29:08.910Z,7.04
2023-01-30T06:31:36.791Z,6.94
2023-01-30T06:34:04.692Z,6.84
2023-01-30T06:36:32.859Z,6.76
2023-01-30T06:39:00.718Z,6.66
2023-01-30T06:41:28.554Z,6.56
2023-01-30T06:43:56.380Z,6.47
2023-01-30T06:46:24.248Z,6.38
2023-01-30T06:48:52.168Z,6.34
2023-01-30T06:51:20.073Z,6.26
2023-01-30T06:53:47.932Z,6.19
2023-01-30T06:56:15.733Z,6.13
2023-01-30T06:58:43.597Z,6.07
2023-01-30T07:01:12.053Z,6.01
2023-01-30T07:03:45.714Z,5.93
2023-01-30T07:06:14.981Z,5.89
2023-01-30T07:08:44.360Z,5.81
2023-01-30T07:11:12.237Z,5.75
2023-01-30T07:13:40.095Z,5.72
2023-01-30T07:16:08.239Z,5.66
2023-01-30T07:18:36.306Z,5.65
2023-01-30T07:21:05.529Z,5.65
2023-01-30T07:23:33.539Z,5.64
2023-01-30T07:26:05.167Z,5.65
2023-01-30T07:28:33.142Z,5.64
2023-01-30T07:31:01.980Z,5.64
2023-01-30T07:33:29.930Z,5.69
2023-01-30T07:35:57.967Z,5.72
2023-01-30T07:38:25.795Z,5.77
2023-01-30T07:40:53.632Z,5.79
2023-01-30T07:43:21.524Z,5.80
2023-01-30T07:45:49.467Z,5.86
2023-01-30T07:48:19.997Z,5.87
2023-01-30T07:50:47.834Z,5.86
2023-01-30T07:53:18.994Z,5.87
2023-01-30T07:55:46.831Z,5.86
2023-01-30T07:58:15.966Z,5.86
2023-01-30T08:00:44.717Z,5.89
2023-01-30T08:03:15.154Z,5.90
2023-01-30T08:05:46.826Z,5.89
2023-01-30T08:08:15.330Z,5.90
2023-01-30T08:10:43.321Z,5.92
2023-01-30T08:13:11.119Z,5.96
2023-01-30T08:15:39.095Z,5.98
2023-01-30T08:18:07.476Z,6.02
2023-01-30T08:20:36.681Z,6.03
2023-01-30T08:23:04.789Z,6.05
2023-01-30T08:25:32.631Z,6.10
2023-01-30T08:28:00.602Z,6.13
2023-01-30T08:30:30.619Z,6.18
2023-01-30T08:32:59.127Z,6.20
2023-01-30T08:35:26.916Z,6.22
2023-01-30T08:37:54.714Z,6.24
2023-01-30T08:40:22.544Z,6.27
2023-01-30T08:42:50.360Z,6.32
2023-01-30T08:45:18.157Z,6.39
2023-01-30T08:47:45.916Z,6.43
2023-01-30T08:50:13.716Z,6.47
2023-01-30T08:52:41.595Z,6.54
2023-01-30T08:55:10.353Z,6.59
2023-01-30T08:57:38.165Z,6.60
2023-01-30T09:00:07.290Z,6.61
2023-01-30T09:02:35.577Z,6.61
2023-01-30T09:05:06.007Z,6.63
2023-01-30T09:07:34.178Z,6.64
2023-01-30T09:10:02.151Z,6.65
2023-01-30T09:12:29.950Z,6.63
2023-01-30T09:14:58.533Z,6.63
2023-01-30T09:17:26.618Z,6.64
2023-01-30T09:19:54.696Z,6.64
2023-01-30T09:22:22.590Z,6.66
2023-01-30T09:24:50.386Z,6.67
2023-01-30T09:27:18.253Z,6.66
2023-01-30T09:29:46.191Z,6.62
2023-01-30T09:32:14.017Z,6.63
2023-01-30T09:34:41.850Z,6.61
2023-01-30T09:37:09.959Z,6.60
2023-01-30T09:39:37.775Z,6.59
2023-01-30T09:42:05.608Z,6.60
2023-01-30T09:45:16.751Z,6.64
2023-01-30T09:48:05.277Z,6.65
2023-01-30T09:51:07.400Z,6.69
2023-01-30T09:53:55.657Z,6.73
2023-01-30T09:56:23.736Z,6.74
2023-01-30T09:58:59.877Z,6.78
2023-01-30T10:01:44.427Z,6.80
2023-01-30T10:04:39.030Z,6.85
2023-01-30T10:07:29.082Z,6.88
2023-01-30T10:10:51.036Z,6.91
2023-01-30T10:13:44.354Z,6.98
2023-01-30T10:16:24.892Z,7.02
2023-01-30T10:19:11.316Z,7.09
2023-01-30T10:22:17.185Z,7.13
2023-01-30T10:25:11.671Z,7.18
2023-01-30T10:27:52.381Z,7.20
2023-01-30T10:30:21.398Z,7.21
2023-01-30T10:33:05.975Z,7.26
2023-01-30T10:35:42.910Z,7.33
2023-01-30T10:38:21.941Z,7.38
2023-01-30T10:41:12.937Z,7.42
2023-01-30T10:43:54.643Z,7.44
2023-01-30T10:46:44.126Z,7.48
2023-01-30T10:49:23.261Z,7.54
2023-01-30T10:52:19.077Z,7.63
2023-01-30T10:55:10.471Z,7.68
2023-01-30T10:58:04.011Z,7.71
2023-01-30T11:00:40.436Z,7.77
2023-01-30T11:03:41.517Z,7.86
2023-01-30T11:06:18.714Z,7.85
2023-01-30T11:08:46.722Z,7.87
2023-01-30T11:11:42.644Z,7.90
2023-01-30T11:14:12.299Z,7.92
2023-01-30T11:16:48.466Z,7.93
2023-01-30T11:19:22.869Z,7.96
2023-01-30T11:22:04.106Z,7.99
2023-01-30T11:24:40.232Z,8.07
2023-01-30T11:27:17.717Z,8.17
2023-01-30T11:29:46.404Z,8.24
2023-01-30T11:32:28.489Z,8.30
2023-01-30T11:35:08.448Z,8.35
2023-01-30T11:37:44.453Z,8.39
2023-01-30T11:40:28.096Z,8.38
2023-01-30T11:43:10.802Z,8.39
2023-01-30T11:45:44.523Z,8.40
2023-01-30T11:48:59.895Z,8.52
2023-01-30T11:51:10.843Z,8.59
2023-01-30T11:53:49.251Z,8.63
2023-01-30T11:56:37.308Z,8.60
2023-01-30T11:59:23.350Z,8.56
2023-01-30T12:01:51.929Z,8.51
2023-01-30T12:04:20.442Z,8.47
2023-01-30T12:07:16.684Z,8.43
2023-01-30T12:09:44.660Z,8.45
2023-01-30T12:12:29.801Z,8.47
2023-01-30T12:15:27.405Z,8.58
2023-01-30T12:18:18.964Z,8.72
2023-01-30T12:20:56.066Z,8.74
2023-01-30T12:23:44.674Z,8.76
2023-01-30T12:26:27.691Z,8.71
2023-01-30T12:29:24.906Z,8.66
2023-01-30T12:32:18.618Z,8.67
2023-01-30T12:34:48.302Z,8.73
2023-01-30T12:37:49.888Z,8.80
2023-01-30T12:40:29.386Z,8.93
2023-01-30T12:43:21.318Z,9.07
2023-01-30T12:46:13.721Z,9.11
2023-01-30T12:49:10.984Z,9.15
2023-01-30T12:51:49.381Z,9.17
2023-01-30T12:54:47.140Z,9.22
2023-01-30T12:57:37.892Z,9.36
2023-01-30T13:00:23.887Z,9.45
2023-01-30T13:03:38.276Z,9.51
2023-01-30T13:06:22.809Z,9.56
2023-01-30T13:09:14.977Z,9.64
2023-01-30T13:12:17.445Z,9.63
2023-01-30T13:15:06.868Z,9.52
2023-01-30T13:17:53.317Z,9.33
2023-01-30T13:20:55.725Z,9.19
2023-01-30T13:23:38.606Z,9.12
2023-01-30T13:26:15.995Z,9.12
2023-01-30T13:28:49.172Z,9.13
2023-01-30T13:31:24.812Z,9.10
2023-01-30T13:34:10.301Z,9.04
2023-01-30T13:36:57.111Z,8.94
2023-01-30T13:39:48.563Z,8.84
2023-01-30T13:43:13.168Z,8.74
2023-01-30T13:45:47.466Z,8.71
2023-01-30T13:48:38.575Z,8.66
2023-01-30T13:51:06.360Z,8.64
2023-01-30T13:53:52.612Z,8.66
2023-01-30T13:56:46.047Z,8.70
2023-01-30T13:59:35.613Z,8.72
2023-01-30T14:02:03.769Z,8.78
2023-01-30T14:04:40.829Z,8.77
2023-01-30T14:07:09.753Z,8.79
2023-01-30T14:09:50.537Z,8.79
2023-01-30T14:12:28.602Z,8.76
2023-01-30T14:15:14.825Z,8.74
2023-01-30T14:18:08.532Z,8.67
2023-01-30T14:20:44.404Z,8.64
2023-01-30T14:23:36.018Z,8.61
2023-01-30T14:26:04.196Z,8.59
2023-01-30T14:28:31.944Z,8.59
2023-01-30T14:31:02.669Z,8.59
2023-01-30T14:33:48.699Z,8.60
2023-01-30T14:36:16.488Z,8.65
2023-01-30T14:38:56.085Z,8.65
2023-01-30T14:41:28.737Z,8.63
2023-01-30T14:43:56.553Z,8.60
2023-01-30T14:46:24.362Z,8.57
2023-01-30T14:49:26.678Z,8.57
2023-01-30T14:51:56.242Z,8.58
2023-01-30T14:54:41.150Z,8.60
2023-01-30T14:57:27.571Z,8.58
2023-01-30T15:00:19.089Z,8.53
2023-01-30T15:03:20.391Z,8.48
2023-01-30T15:05:48.553Z,8.47
2023-01-30T15:08:22.706Z,8.44
2023-01-30T15:11:16.970Z,8.40
2023-01-30T15:13:55.718Z,8.38
2023-01-30T15:16:47.956Z,8.39
2023-01-30T15:19:49.532Z,8.39
2023-01-30T15:22:42.721Z,8.38
2023-01-30T15:25:31.758Z,8.32
2023-01-30T15:28:19.760Z,8.31
2023-01-30T15:31:08.715Z,8.29
2023-01-30T15:33:45.528Z,8.28
2023-01-30T15:36:25.288Z,8.23
2023-01-30T15:39:06.016Z,8.19
2023-01-30T15:41:42.582Z,8.16
2023-01-30T15:44:50.424Z,8.14
2023-01-30T15:47:49.744Z,8.10
2023-01-30T15:50:18.595Z,8.07
2023-01-30T15:52:50.149Z,8.05
2023-01-30T15:55:33.861Z,8.02
2023-01-30T15:58:09.543Z,7.97
2023-01-30T16:00:47.719Z,7.94
2023-01-30T16:03:28.177Z,7.88
2023-01-30T16:05:58.279Z,7.85
2023-01-30T16:08:36.731Z,7.84
2023-01-30T16:11:04.848Z,7.79
2023-01-30T16:13:33.354Z,7.75
2023-01-30T16:16:16.709Z,7.71
2023-01-30T16:19:02.687Z,7.64
2023-01-30T16:21:40.252Z,7.58
2023-01-30T16:24:22.550Z,7.53
2023-01-30T16:26:56.231Z,7.49
2023-01-30T16:29:28.818Z,7.42
2023-01-30T16:31:57.347Z,7.37
2023-01-30T16:34:33.019Z,7.31
2023-01-30T16:37:30.963Z,7.24
2023-01-30T16:40:11.024Z,7.17
2023-01-30T16:42:38.995Z,7.15
2023-01-30T16:45:12.953Z,7.09
2023-01-30T16:47:41.139Z,7.08
2023-01-30T16:50:22.405Z,7.04
2023-01-30T16:52:56.047Z,6.96
2023-01-30T16:55:26.864Z,6.85
2023-01-30T16:57:59.978Z,6.74
2023-01-30T17:00:40.111Z,6.65
2023-01-30T17:03:28.657Z,6.57
2023-01-30T17:05:58.526Z,6.57
2023-01-30T17:08:49.615Z,6.52
2023-01-30T17:11:40.436Z,6.47
2023-01-30T17:14:30.562Z,6.41
2023-01-30T17:17:09.888Z,6.40
2023-01-30T17:19:38.300Z,6.33
2023-01-30T17:22:19.240Z,6.26
2023-01-30T17:24:47.111Z,6.20
2023-01-30T17:27:16.428Z,6.14
2023-01-30T17:29:45.973Z,6.13
2023-01-30T17:32:16.046Z,6.07
2023-01-30T17:34:44.157Z,6.03
2023-01-30T17:37:17.371Z,6.00
2023-01-30T17:39:45.423Z,5.90
2023-01-30T17:42:17.796Z,5.79
2023-01-30T17:44:45.706Z,5.71
2023-01-30T17:47:13.754Z,5.61
2023-01-30T17:49:42.135Z,5.58
2023-01-30T17:52:13.494Z,5.55
2023-01-30T17:54:41.437Z,5.53
2023-01-30T17:57:15.697Z,5.41
2023-01-30T17:59:43.727Z,5.23
2023-01-30T18:02:11.565Z,5.09
2023-01-30T18:04:42.778Z,5.02
2023-01-30T18:07:16.536Z,4.95
2023-01-30T18:09:44.433Z,4.87
2023-01-30T18:12:12.306Z,4.81
2023-01-30T18:14:40.088Z,4.74
2023-01-30T18:17:09.776Z,4.71
2023-01-30T18:19:37.638Z,4.73
2023-01-30T18:22:05.583Z,4.69
2023-01-30T18:24:34.308Z,4.60
2023-01-30T18:27:02.233Z,4.47
2023-01-30T18:29:30.285Z,4.38
2023-01-30T18:32:04.938Z,4.27
2023-01-30T18:34:32.864Z,4.24
2023-01-30T18:37:00.940Z,4.27
2023-01-30T18:39:29.330Z,4.26
2023-01-30T18:41:57.255Z,4.21
2023-01-30T18:44:25.293Z,4.17
2023-01-30T18:47:00.369Z,4.14
2023-01-30T18:49:31.239Z,4.05
2023-01-30T18:51:59.830Z,4.00
2023-01-30T18:54:27.685Z,3.99
2023-01-30T18:56:57.031Z,3.95
2023-01-30T18:59:26.401Z,3.90
2023-01-30T19:01:54.291Z,3.90
2023-01-30T19:04:22.441Z,3.94
2023-01-30T19:06:50.226Z,3.93
2023-01-30T19:09:19.053Z,3.89
2023-01-30T19:12:05.699Z,3.85
2023-01-30T19:14:33.652Z,3.83
2023-01-30T19:17:01.635Z,3.81
2023-01-30T19:19:29.747Z,3.79
2023-01-30T19:21:57.680Z,3.75
2023-01-30T19:24:25.924Z,3.66
2023-01-30T19:26:53.900Z,3.58
2023-01-30T19:29:21.951Z,3.52
2023-01-30T19:31:50.263Z,3.50
2023-01-30T19:34:18.450Z,3.46
2023-01-30T19:36:46.509Z,3.43
2023-01-30T19:39:14.437Z,3.41
2023-01-30T19:41:42.406Z,3.46
2023-01-30T19:44:11.956Z,3.49
2023-01-30T19:46:40.769Z,3.52
2023-01-30T19:49:11.839Z,3.57
2023-01-30T19:51:40.680Z,3.59
2023-01-30T19:54:11.978Z,3.51
2023-01-30T19:56:42.417Z,3.46
2023-01-30T19:59:12.917Z,3.48
2023-01-30T20:01:41.047Z,3.47
2023-01-30T20:04:09.244Z,3.51
2023-01-30T20:06:42.880Z,3.49
2023-01-30T20:09:11.626Z,3.53
2023-01-30T20:11:41.765Z,3.50
2023-01-30T20:14:11.223Z,3.47
2023-01-30T20:16:40.129Z,3.49
2023-01-30T20:19:17.006Z,3.50
2023-01-30T20:21:45.585Z,3.51
2023-01-30T20:24:15.556Z,3.50
2023-01-30T20:26:47.196Z,3.52
2023-01-30T20:29:17.568Z,3.49
2023-01-30T20:31:45.621Z,3.46
2023-01-30T20:34:15.255Z,3.39
2023-01-30T20:36:43.259Z,3.34
2023-01-30T20:39:11.467Z,3.31
2023-01-30T20:41:39.680Z,3.28
2023-01-30T20:44:11.823Z,3.28
2023-01-30T20:46:49.803Z,3.25
2023-01-30T20:49:21.216Z,3.22
2023-01-30T20:51:52.775Z,3.21
2023-01-30T20:54:22.735Z,3.17
2023-01-30T20:56:53.310Z,3.14
2023-01-30T20:59:24.627Z,3.04
2023-01-30T21:01:53.682Z,3.02
2023-01-30T21:04:24.343Z,2.99
2023-01-30T21:06:52.696Z,2.98
2023-01-30T21:09:23.534Z,2.95
2023-01-30T21:11:53.302Z,2.89
2023-01-30T21:14:22.013Z,2.86
2023-01-30T21:16:50.103Z,2.84
2023-01-30T21:19:18.672Z,2.82
2023-01-30T21:21:54.121Z,2.80
2023-01-30T21:24:28.026Z,2.72
2023-01-30T21:26:57.214Z,2.73
2023-01-30T21:29:27.894Z,2.75
2023-01-30T21:31:58.710Z,2.74
2023-01-30T21:34:26.893Z,2.71
2023-01-30T21:37:13.622Z,2.66
2023-01-30T21:39:59.912Z,2.67
2023-01-30T21:42:46.484Z,2.66
2023-01-30T21:45:15.333Z,2.57
2023-01-30T21:47:43.152Z,2.52
2023-01-30T21:50:11.287Z,2.46
2023-01-30T21:52:39.180Z,2.46
2023-01-30T21:55:08.337Z,2.46
2023-01-30T21:57:36.614Z,2.50
2023-01-30T22:00:05.523Z,2.50
2023-01-30T22:02:33.228Z,2.47
2023-01-30T22:05:01.040Z,2.42
2023-01-30T22:07:28.838Z,2.39
2023-01-30T22:09:57.174Z,2.39
2023-01-30T22:12:26.503Z,2.38
2023-01-30T22:14:54.950Z,2.38
2023-01-30T22:17:22.920Z,2.40
2023-01-30T22:19:50.699Z,2.46
2023-01-30T22:22:18.622Z,2.48
2023-01-30T22:24:46.383Z,2.49
2023-01-30T22:27:16.434Z,2.56
2023-01-30T22:29:44.239Z,2.58
2023-01-30T22:32:12.307Z,2.62
2023-01-30T22:34:40.559Z,2.67
2023-01-30T22:37:08.665Z,2.78
2023-01-30T22:39:37.258Z,2.89
2023-01-30T22:42:07.612Z,2.99
2023-01-30T22:44:35.908Z,3.07
2023-01-30T22:47:03.888Z,3.14
2023-01-30T22:49:31.796Z,3.21
2023-01-30T22:52:01.713Z,3.30
2023-01-30T22:54:29.797Z,3.40
2023-01-30T22:56:57.599Z,3.48
2023-01-30T22:59:25.530Z,3.55
2023-01-30T23:01:53.421Z,3.63
2023-01-30T23:04:23.367Z,3.68
2023-01-30T23:06:52.225Z,3.74
2023-01-30T23:09:23.266Z,3.78
2023-01-30T23:12:14.521Z,3.81
2023-01-30T23:14:43.531Z,3.84
2023-01-30T23:17:30.263Z,3.89
2023-01-30T23:19:58.254Z,3.91
2023-01-30T23:22:26.620Z,3.98
2023-01-30T23:24:54.532Z,3.99
2023-01-30T23:27:22.425Z,3.99
2023-01-30T23:29:50.295Z,4.03
2023-01-30T23:32:20.184Z,4.05
2023-01-30T23:34:48.466Z,4.06
2023-01-30T23:37:16.998Z,4.09
2023-01-30T23:39:45.697Z,4.12
2023-01-30T23:42:13.714Z,4.17
2023-01-30T23:44:41.695Z,4.21
2023-01-30T23:47:09.525Z,4.22
2023-01-30T23:49:37.870Z,4.22
2023-01-30T23:52:06.012Z,4.26
2023-01-30T23:54:33.936Z,4.30
2023-01-30T23:57:02.266Z,4.34
2023-01-30T23:59:30.219Z,4.41
